Terminal Aerodrome Forecast
Issued by NWS Charleston, WV

Current Version | Previous Version | Graphics & Text | Print | Product List | Glossary On
Versions: 1 2 3 4 5 6 7 8 9 10 11 12 13 14 15 16 17 18 19 20 21 22 23 24 25 26 27 28 29 30
000
FTUS41 KRLX 032049 AAA
TAFPKB
TAF AMD
KPKB 032049Z 0321/0418 08004KT 5SM SHRA VCTS BKN030CB OVC060
      TEMPO 0321/0322 2SM TSRA OVC015CB
     FM040000 05003KT 6SM BR VCSH OVC015
     FM040300 35003KT 3SM BR OVC007
     FM041200 00000KT 5SM BR BKN015
     FM041300 00000KT P6SM SCT020=

USA.gov is the U.S. government's official web portal to all federal, state and local government web resources and services.